Time;durP1;ratioP1;P1;durP2;ratioP2;P2;SDS_P1;SDS_P2;PMS_P1;PMS_P2;Temp;Humidity;BMP_temperature;BMP_pressure;BME280_temperature;BME280_humidity;BME280_pressure;Samples;Min_cycle;Max_cycle;Signal;HPM_P1;HPM_P2
2021/07/29 17:00:16;;;;;;;0.08;0.08;;;;;;;;;;5129848;27;20515;-70
2021/07/29 17:02:42;;;;;;;0.00;0.00;;;;;;;;;;5111508;28;20238;-70
2021/07/29 17:05:09;;;;;;;0.10;0.10;;;;;;;;;;5109448;28;20204;-71
2021/07/29 17:07:38;;;;;;;0.05;0.05;;;;;;;;;;5121910;28;20237;-71
2021/07/29 17:10:05;;;;;;;0.30;0.30;;;;;;;;;;5111361;28;20203;-71
2021/07/29 17:12:32;;;;;;;0.08;0.08;;;;;;;;;;5124120;28;20221;-74
2021/07/29 17:15:00;;;;;;;0.20;0.20;;;;;;;;;;5125538;28;20206;-71
2021/07/29 17:17:28;;;;;;;0.10;0.10;;;;;;;;;;5123279;28;20491;-74
2021/07/29 17:19:54;;;;;;;0.00;0.00;;;;;;;;;;5111584;28;20373;-72
2021/07/29 17:22:20;;;;;;;0.05;0.05;;;;;;;;;;5111316;28;20424;-74
2021/07/29 17:24:47;;;;;;;0.10;0.10;;;;;;;;;;5115219;28;20228;-72
2021/07/29 17:27:13;;;;;;;0.00;0.00;;;;;;;;;;5103133;28;20259;-71
2021/07/29 17:29:39;;;;;;;0.00;0.00;;;;;;;;;;5120383;28;20467;-74
2021/07/29 17:32:06;;;;;;;0.08;0.08;;;;;;;;;;5110940;28;20214;-75
2021/07/29 17:34:34;;;;;;;0.00;0.00;;;;;;;;;;5118186;28;20259;-74
2021/07/29 17:37:00;;;;;;;0.00;0.00;;;;;;;;;;5120686;28;20205;-71
2021/07/29 17:39:26;;;;;;;0.00;0.00;;;;;;;;;;5110333;28;20263;-72
2021/07/29 17:41:53;;;;;;;0.00;0.00;;;;;;;;;;5110255;28;20202;-72
2021/07/29 17:44:19;;;;;;;0.00;0.00;;;;;;;;;;5118952;28;20454;-72
2021/07/29 17:46:45;;;;;;;0.00;0.00;;;;;;;;;;5113161;28;20204;-74
2021/07/29 17:49:12;;;;;;;0.00;0.00;;;;;;;;;;5116491;28;20241;-72
2021/07/29 17:51:40;;;;;;;0.00;0.00;;;;;;;;;;5127017;28;20202;-73
2021/07/29 17:54:06;;;;;;;11.95;11.15;;;;;;;;;;5108114;28;20227;-73
2021/07/29 17:56:32;;;;;;;0.08;0.08;;;;;;;;;;5116413;28;20382;-73
2021/07/29 17:58:59;;;;;;;0.00;0.00;;;;;;;;;;5119309;28;20233;-73
2021/07/29 18:01:25;;;;;;;0.00;0.00;;;;;;;;;;5119617;28;20225;-71
2021/07/29 18:03:51;;;;;;;0.00;0.00;;;;;;;;;;5116230;28;20199;-72
2021/07/29 18:06:23;;;;;;;0.00;0.00;;;;;;;;;;5113306;27;20220;-74
2021/07/29 18:08:50;;;;;;;0.00;0.00;;;;;;;;;;5107732;28;20372;-71
2021/07/29 18:11:17;;;;;;;0.00;0.00;;;;;;;;;;5105720;28;20219;-71
2021/07/29 18:13:43;;;;;;;0.10;0.10;;;;;;;;;;5107030;28;20198;-71
2021/07/29 18:16:09;;;;;;;0.05;0.05;;;;;;;;;;5099140;28;20211;-71
2021/07/29 18:18:36;;;;;;;0.08;0.08;;;;;;;;;;5104215;28;20230;-72
2021/07/29 18:21:02;;;;;;;0.00;0.00;;;;;;;;;;5092539;28;20195;-71
2021/07/29 18:23:28;;;;;;;0.00;0.00;;;;;;;;;;5105918;28;20203;-72
2021/07/29 18:25:56;;;;;;;0.00;0.00;;;;;;;;;;5105993;28;20199;-71
2021/07/29 18:28:22;;;;;;;0.10;0.10;;;;;;;;;;5105745;28;20207;-70
2021/07/29 18:30:49;;;;;;;0.00;0.00;;;;;;;;;;5099405;28;20199;-71
2021/07/29 18:33:15;;;;;;;0.00;0.00;;;;;;;;;;5105555;28;20539;-72
2021/07/29 18:35:41;;;;;;;0.00;0.00;;;;;;;;;;5104923;28;20203;-72
2021/07/29 18:38:07;;;;;;;0.00;0.00;;;;;;;;;;5106371;28;20256;-71
2021/07/29 18:40:34;;;;;;;0.00;0.00;;;;;;;;;;5091733;28;20230;-72
2021/07/29 18:43:01;;;;;;;0.10;0.10;;;;;;;;;;5102118;28;20221;-72
2021/07/29 18:45:28;;;;;;;0.00;0.00;;;;;;;;;;5101926;28;20433;-72
2021/07/29 18:47:58;;;;;;;0.00;0.00;;;;;;;;;;5099501;28;20377;-72
2021/07/29 18:50:24;;;;;;;0.00;0.00;;;;;;;;;;5099599;28;20186;-73
2021/07/29 18:52:51;;;;;;;0.08;0.08;;;;;;;;;;5097595;28;20199;-74
2021/07/29 18:55:17;;;;;;;0.20;0.20;;;;;;;;;;5104148;28;20210;-71
2021/07/29 18:57:43;;;;;;;0.08;0.08;;;;;;;;;;5105200;28;20205;-73
2021/07/29 19:00:11;;;;;;;0.00;0.00;;;;;;;;;;5095746;28;20238;-72
2021/07/29 19:02:38;;;;;;;0.00;0.00;;;;;;;;;;5096854;28;20486;-74
2021/07/29 19:05:04;;;;;;;0.00;0.00;;;;;;;;;;5101254;28;20198;-72
2021/07/29 19:07:31;;;;;;;0.00;0.00;;;;;;;;;;5101760;28;20206;-72
2021/07/29 19:09:59;;;;;;;0.00;0.00;;;;;;;;;;5109030;28;20210;-73
2021/07/29 19:12:25;;;;;;;0.00;0.00;;;;;;;;;;5098372;28;20209;-74
2021/07/29 19:14:51;;;;;;;0.08;0.08;;;;;;;;;;5101037;28;20259;-73
2021/07/29 19:17:19;;;;;;;0.00;0.00;;;;;;;;;;5089469;28;20267;-71
2021/07/29 19:19:45;;;;;;;0.00;0.00;;;;;;;;;;5096782;28;20227;-72
2021/07/29 19:22:12;;;;;;;0.00;0.00;;;;;;;;;;5098214;28;20207;-71
2021/07/29 19:24:38;;;;;;;0.00;0.00;;;;;;;;;;5097154;28;20202;-73
2021/07/29 19:27:05;;;;;;;0.00;0.00;;;;;;;;;;5116769;28;20206;-73
2021/07/29 19:29:32;;;;;;;0.00;0.00;;;;;;;;;;5098217;27;20279;-72
2021/07/29 19:31:58;;;;;;;0.00;0.00;;;;;;;;;;5096827;28;20195;-72
2021/07/29 19:34:26;;;;;;;0.00;0.00;;;;;;;;;;5112045;28;20203;-72
2021/07/29 19:36:53;;;;;;;0.08;0.08;;;;;;;;;;5107297;28;20209;-71
2021/07/29 19:39:19;;;;;;;0.00;0.00;;;;;;;;;;5104072;28;20222;-72
2021/07/29 19:41:45;;;;;;;0.00;0.00;;;;;;;;;;5104462;28;20209;-72
2021/07/29 19:44:12;;;;;;;0.05;0.05;;;;;;;;;;5104233;28;20202;-72
2021/07/29 19:46:40;;;;;;;0.05;0.05;;;;;;;;;;5108933;28;20206;-72
2021/07/29 19:49:08;;;;;;;0.10;0.10;;;;;;;;;;5104703;28;20207;-74
2021/07/29 19:51:36;;;;;;;0.10;0.10;;;;;;;;;;5103833;28;20197;-72
2021/07/29 19:54:03;;;;;;;0.10;0.10;;;;;;;;;;5101760;28;20513;-73
2021/07/29 19:56:29;;;;;;;0.00;0.00;;;;;;;;;;5101046;28;20206;-73
2021/07/29 19:58:55;;;;;;;0.10;0.10;;;;;;;;;;5103607;28;20411;-73
2021/07/29 20:01:21;;;;;;;0.00;0.00;;;;;;;;;;5096999;28;20375;-72
2021/07/29 20:03:48;;;;;;;0.10;0.10;;;;;;;;;;5088073;28;20383;-73
2021/07/29 20:06:14;;;;;;;0.00;0.00;;;;;;;;;;5097086;28;20386;-71
2021/07/29 20:08:41;;;;;;;0.10;0.10;;;;;;;;;;5103919;28;20211;-73
2021/07/29 20:11:08;;;;;;;0.00;0.00;;;;;;;;;;5101562;28;20253;-73
2021/07/29 20:13:34;;;;;;;0.00;0.00;;;;;;;;;;5095631;28;20244;-73
2021/07/29 20:16:00;;;;;;;0.00;0.00;;;;;;;;;;5089745;28;20206;-73
2021/07/29 20:18:26;;;;;;;0.00;0.00;;;;;;;;;;5100120;28;20219;-72
2021/07/29 20:20:53;;;;;;;0.00;0.00;;;;;;;;;;5098542;28;20293;-71
2021/07/29 20:23:19;;;;;;;0.00;0.00;;;;;;;;;;5089147;28;20200;-71
2021/07/29 20:25:47;;;;;;;0.00;0.00;;;;;;;;;;5093986;28;20224;-71
2021/07/29 20:28:13;;;;;;;0.00;0.00;;;;;;;;;;5089149;28;20388;-71
2021/07/29 20:30:40;;;;;;;0.00;0.00;;;;;;;;;;5088963;28;20215;-73
2021/07/29 20:33:07;;;;;;;0.00;0.00;;;;;;;;;;5091018;28;20222;-72
2021/07/29 20:35:33;;;;;;;0.00;0.00;;;;;;;;;;5098128;28;20362;-73
2021/07/29 20:37:59;;;;;;;0.10;0.10;;;;;;;;;;5094657;28;20267;-73
2021/07/29 20:40:26;;;;;;;0.00;0.00;;;;;;;;;;5090723;28;20268;-71
2021/07/29 20:42:53;;;;;;;0.00;0.00;;;;;;;;;;5095618;28;20240;-72
2021/07/29 20:45:19;;;;;;;0.00;0.00;;;;;;;;;;5094567;28;20214;-73
2021/07/29 20:47:46;;;;;;;0.00;0.00;;;;;;;;;;5093417;28;20259;-71
2021/07/29 20:50:14;;;;;;;0.00;0.00;;;;;;;;;;5091812;28;20259;-71
2021/07/29 20:52:40;;;;;;;0.00;0.00;;;;;;;;;;5089716;28;20207;-71
2021/07/29 20:55:10;;;;;;;0.00;0.00;;;;;;;;;;5092399;28;20214;-73
2021/07/29 20:57:37;;;;;;;0.00;0.00;;;;;;;;;;5088494;28;20210;-74
2021/07/29 21:00:06;;;;;;;0.00;0.00;;;;;;;;;;5094739;28;20222;-71
2021/07/29 21:02:32;;;;;;;0.40;0.40;;;;;;;;;;5092843;28;20206;-71
2021/07/29 21:04:58;;;;;;;0.10;0.10;;;;;;;;;;5090197;28;20209;-73
2021/07/29 21:07:24;;;;;;;0.10;0.10;;;;;;;;;;5097968;28;20210;-73
2021/07/29 21:09:51;;;;;;;0.00;0.00;;;;;;;;;;5086773;28;20205;-73
2021/07/29 21:12:17;;;;;;;0.10;0.10;;;;;;;;;;5100341;28;20210;-72
2021/07/29 21:14:43;;;;;;;0.00;0.00;;;;;;;;;;5104113;28;20238;-74
2021/07/29 21:17:11;;;;;;;0.00;0.00;;;;;;;;;;5104568;28;20206;-72
2021/07/29 21:19:37;;;;;;;0.00;0.00;;;;;;;;;;5102539;28;20228;-74
2021/07/29 21:22:04;;;;;;;0.00;0.00;;;;;;;;;;5105182;28;20421;-73
2021/07/29 21:24:30;;;;;;;0.00;0.00;;;;;;;;;;5104967;28;20204;-73
2021/07/29 21:26:57;;;;;;;0.10;0.10;;;;;;;;;;5093501;28;20276;-72
2021/07/29 21:29:23;;;;;;;0.00;0.00;;;;;;;;;;5103609;28;20208;-74
2021/07/29 21:31:49;;;;;;;0.00;0.00;;;;;;;;;;5103903;28;20203;-72
2021/07/29 21:34:17;;;;;;;0.10;0.10;;;;;;;;;;5104771;28;20272;-73
2021/07/29 21:36:44;;;;;;;0.00;0.00;;;;;;;;;;5102616;28;20205;-72
2021/07/29 21:39:10;;;;;;;0.00;0.00;;;;;;;;;;5102035;28;20229;-73
2021/07/29 21:41:37;;;;;;;0.00;0.00;;;;;;;;;;5103777;28;20422;-73
2021/07/29 21:44:04;;;;;;;0.00;0.00;;;;;;;;;;5104357;28;20255;-73
2021/07/29 21:46:33;;;;;;;0.00;0.00;;;;;;;;;;5107307;28;20244;-74
2021/07/29 21:48:59;;;;;;;0.00;0.00;;;;;;;;;;5107923;28;20195;-74
2021/07/29 21:51:27;;;;;;;0.00;0.00;;;;;;;;;;5107863;28;20194;-73
2021/07/29 21:53:53;;;;;;;0.00;0.00;;;;;;;;;;5106299;28;20204;-73
2021/07/29 21:56:20;;;;;;;0.00;0.00;;;;;;;;;;5107817;28;20239;-73
2021/07/29 21:58:46;;;;;;;0.00;0.00;;;;;;;;;;5107652;28;20250;-73
2021/07/29 22:01:12;;;;;;;0.00;0.00;;;;;;;;;;5106264;28;20540;-73
2021/07/29 22:03:38;;;;;;;0.00;0.00;;;;;;;;;;5106858;28;20400;-73
2021/07/29 22:06:05;;;;;;;0.00;0.00;;;;;;;;;;5106921;28;20205;-73
2021/07/29 22:08:37;;;;;;;0.08;0.08;;;;;;;;;;5107023;28;20204;-72
2021/07/29 22:11:03;;;;;;;0.00;0.00;;;;;;;;;;5108443;28;20209;-71
2021/07/29 22:13:29;;;;;;;0.08;0.08;;;;;;;;;;5093180;28;20204;-72
2021/07/29 22:15:56;;;;;;;0.00;0.00;;;;;;;;;;5088066;28;20221;-72
2021/07/29 22:18:22;;;;;;;0.00;0.00;;;;;;;;;;5089058;28;20242;-75
2021/07/29 22:20:48;;;;;;;0.00;0.00;;;;;;;;;;5102179;28;20234;-74
2021/07/29 22:23:14;;;;;;;0.00;0.00;;;;;;;;;;5088713;28;20206;-74
2021/07/29 22:25:42;;;;;;;0.00;0.00;;;;;;;;;;5102781;28;20199;-74
2021/07/29 22:28:08;;;;;;;0.10;0.10;;;;;;;;;;5093115;28;20204;-73
2021/07/29 22:30:34;;;;;;;0.00;0.00;;;;;;;;;;5094413;28;20202;-74
2021/07/29 22:33:01;;;;;;;0.00;0.00;;;;;;;;;;5093587;28;20205;-74
2021/07/29 22:35:27;;;;;;;0.10;0.10;;;;;;;;;;5097292;28;20233;-74
2021/07/29 22:37:53;;;;;;;0.00;0.00;;;;;;;;;;5088756;28;20254;-73
2021/07/29 22:40:20;;;;;;;0.00;0.00;;;;;;;;;;5098272;28;20247;-73
2021/07/29 22:42:47;;;;;;;0.10;0.10;;;;;;;;;;5093919;28;20202;-74
2021/07/29 22:45:13;;;;;;;0.05;0.05;;;;;;;;;;5098473;28;20209;-72
2021/07/29 22:47:40;;;;;;;0.00;0.00;;;;;;;;;;5086264;28;20205;-72
2021/07/29 22:50:07;;;;;;;0.10;0.10;;;;;;;;;;5092725;28;20209;-73
2021/07/29 22:52:33;;;;;;;0.00;0.00;;;;;;;;;;5107600;28;20414;-74
2021/07/29 22:55:06;;;;;;;0.10;0.10;;;;;;;;;;5094018;28;20259;-76
2021/07/29 22:57:32;;;;;;;0.10;0.10;;;;;;;;;;5108918;28;20200;-73
2021/07/29 23:00:06;;;;;;;0.00;0.00;;;;;;;;;;5102633;28;20551;-72
2021/07/29 23:02:34;;;;;;;0.00;0.00;;;;;;;;;;5085496;28;20210;-74
2021/07/29 23:05:01;;;;;;;0.10;0.10;;;;;;;;;;5085618;28;20215;-72
2021/07/29 23:07:28;;;;;;;0.00;0.00;;;;;;;;;;5085454;28;20247;-72
2021/07/29 23:09:54;;;;;;;0.00;0.00;;;;;;;;;;5099495;28;20507;-74
2021/07/29 23:12:20;;;;;;;0.00;0.00;;;;;;;;;;5085199;28;20214;-72
2021/07/29 23:14:47;;;;;;;0.00;0.00;;;;;;;;;;5094426;28;20292;-72
2021/07/29 23:17:14;;;;;;;0.03;0.03;;;;;;;;;;5105858;28;20417;-71
2021/07/29 23:19:40;;;;;;;0.10;0.10;;;;;;;;;;5098013;28;20226;-72
2021/07/29 23:22:07;;;;;;;0.00;0.00;;;;;;;;;;5086146;28;20273;-74
2021/07/29 23:24:39;;;;;;;0.10;0.10;;;;;;;;;;5105686;28;20206;-72
2021/07/29 23:29:49;;;;;;;0.00;0.00;;;;;;;;;;5092078;28;20257;-72
2021/07/29 23:32:17;;;;;;;0.00;0.00;;;;;;;;;;5105884;28;20209;-73
2021/07/29 23:34:43;;;;;;;0.10;0.10;;;;;;;;;;5105795;28;20204;-72
2021/07/29 23:37:10;;;;;;;0.00;0.00;;;;;;;;;;5105556;28;20382;-72
2021/07/29 23:39:36;;;;;;;0.08;0.08;;;;;;;;;;5091532;28;20417;-73
2021/07/29 23:42:03;;;;;;;0.10;0.10;;;;;;;;;;5095813;28;20539;-74
2021/07/29 23:44:29;;;;;;;0.00;0.00;;;;;;;;;;5085520;28;20290;-73
2021/07/29 23:46:55;;;;;;;0.00;0.00;;;;;;;;;;5085653;28;20254;-72
2021/07/29 23:49:23;;;;;;;0.00;0.00;;;;;;;;;;5085638;28;20251;-73
2021/07/29 23:51:50;;;;;;;0.00;0.00;;;;;;;;;;5091156;28;20234;-72
2021/07/29 23:54:17;;;;;;;0.00;0.00;;;;;;;;;;5092571;28;20206;-73
2021/07/29 23:56:43;;;;;;;0.00;0.00;;;;;;;;;;5085629;28;20246;-74
2021/07/29 23:59:10;;;;;;;0.00;0.00;;;;;;;;;;5084159;28;20513;-72
